sensor_id;sensor_type;location;lat;lon;timestamp;pressure;altitude;pressure_sealevel;temperature;humidity
75438;BME280;64015;49.392;15.582;2024-01-06T00:01:44;94557.88;;;0.89;100.00
75438;BME280;64015;49.392;15.582;2024-01-06T00:04:13;94553.56;;;0.94;100.00
75438;BME280;64015;49.392;15.582;2024-01-06T00:07:11;94551.75;;;0.95;100.00
75438;BME280;64015;49.392;15.582;2024-01-06T00:09:36;94569.22;;;1.16;100.00
75438;BME280;64015;49.392;15.582;2024-01-06T00:12:02;94556.06;;;1.06;100.00
75438;BME280;64015;49.392;15.582;2024-01-06T00:14:28;94556.00;;;1.18;100.00
75438;BME280;64015;49.392;15.582;2024-01-06T00:16:54;94558.25;;;1.14;100.00
75438;BME280;64015;49.392;15.582;2024-01-06T00:19:25;94544.06;;;1.00;100.00
75438;BME280;64015;49.392;15.582;2024-01-06T00:21:51;94558.84;;;0.99;100.00
75438;BME280;64015;49.392;15.582;2024-01-06T00:24:17;94566.22;;;1.07;100.00
75438;BME280;64015;49.392;15.582;2024-01-06T00:26:43;94555.50;;;1.04;100.00
75438;BME280;64015;49.392;15.582;2024-01-06T00:29:08;94568.09;;;1.12;100.00
75438;BME280;64015;49.392;15.582;2024-01-06T00:31:34;94577.56;;;1.18;100.00
75438;BME280;64015;49.392;15.582;2024-01-06T00:34:00;94575.19;;;1.17;100.00
75438;BME280;64015;49.392;15.582;2024-01-06T00:36:25;94564.81;;;1.17;100.00
75438;BME280;64015;49.392;15.582;2024-01-06T00:38:58;94560.88;;;1.14;100.00
75438;BME280;64015;49.392;15.582;2024-01-06T00:41:26;94569.75;;;1.18;100.00
75438;BME280;64015;49.392;15.582;2024-01-06T00:44:11;94575.03;;;1.23;100.00
75438;BME280;64015;49.392;15.582;2024-01-06T00:46:39;94592.31;;;1.34;100.00
75438;BME280;64015;49.392;15.582;2024-01-06T00:49:04;94571.06;;;1.21;100.00
75438;BME280;64015;49.392;15.582;2024-01-06T00:51:30;94591.63;;;1.39;100.00
75438;BME280;64015;49.392;15.582;2024-01-06T00:53:56;94573.59;;;1.32;100.00
75438;BME280;64015;49.392;15.582;2024-01-06T00:56:22;94573.03;;;1.30;100.00
75438;BME280;64015;49.392;15.582;2024-01-06T00:58:48;94581.47;;;1.37;100.00
75438;BME280;64015;49.392;15.582;2024-01-06T01:01:14;94602.41;;;1.47;100.00
75438;BME280;64015;49.392;15.582;2024-01-06T01:03:39;94590.84;;;1.38;100.00
75438;BME280;64015;49.392;15.582;2024-01-06T01:06:05;94588.38;;;1.32;100.00
75438;BME280;64015;49.392;15.582;2024-01-06T01:08:31;94603.94;;;1.48;100.00
75438;BME280;64015;49.392;15.582;2024-01-06T01:11:16;94609.22;;;1.54;100.00
75438;BME280;64015;49.392;15.582;2024-01-06T01:14:01;94595.91;;;1.50;100.00
75438;BME280;64015;49.392;15.582;2024-01-06T01:16:28;94611.50;;;1.50;100.00
75438;BME280;64015;49.392;15.582;2024-01-06T01:19:15;94594.53;;;1.42;100.00
75438;BME280;64015;49.392;15.582;2024-01-06T01:21:41;94603.47;;;1.52;100.00
75438;BME280;64015;49.392;15.582;2024-01-06T01:26:36;94593.09;;;1.52;100.00
75438;BME280;64015;49.392;15.582;2024-01-06T01:32:09;94583.03;;;1.38;100.00
75438;BME280;64015;49.392;15.582;2024-01-06T01:34:35;94591.91;;;1.42;100.00
75438;BME280;64015;49.392;15.582;2024-01-06T01:37:30;94598.47;;;1.45;100.00
75438;BME280;64015;49.392;15.582;2024-01-06T01:40:08;94591.63;;;1.39;100.00
75438;BME280;64015;49.392;15.582;2024-01-06T01:42:34;94573.91;;;1.36;100.00
75438;BME280;64015;49.392;15.582;2024-01-06T01:45:08;94583.50;;;1.35;100.00
75438;BME280;64015;49.392;15.582;2024-01-06T01:51:15;94561.97;;;1.18;100.00
75438;BME280;64015;49.392;15.582;2024-01-06T01:57:40;94591.78;;;1.32;100.00
75438;BME280;64015;49.392;15.582;2024-01-06T02:18:49;94571.38;;;1.41;100.00
75438;BME280;64015;49.392;15.582;2024-01-06T02:21:34;94584.31;;;1.58;100.00
75438;BME280;64015;49.392;15.582;2024-01-06T02:26:39;94571.34;;;1.58;100.00
75438;BME280;64015;49.392;15.582;2024-01-06T02:29:05;94557.25;;;1.54;100.00
75438;BME280;64015;49.392;15.582;2024-01-06T02:31:31;94562.22;;;1.55;100.00
75438;BME280;64015;49.392;15.582;2024-01-06T02:33:57;94558.28;;;1.53;100.00
75438;BME280;64015;49.392;15.582;2024-01-06T02:36:22;94576.63;;;1.63;100.00
75438;BME280;64015;49.392;15.582;2024-01-06T02:42:17;94569.13;;;1.66;100.00
75438;BME280;64015;49.392;15.582;2024-01-06T02:44:48;94558.66;;;1.61;100.00
75438;BME280;64015;49.392;15.582;2024-01-06T02:47:21;94563.38;;;1.64;100.00
75438;BME280;64015;49.392;15.582;2024-01-06T02:49:49;94563.63;;;1.63;100.00
75438;BME280;64015;49.392;15.582;2024-01-06T02:52:15;94566.78;;;1.65;100.00
75438;BME280;64015;49.392;15.582;2024-01-06T02:54:41;94574.63;;;1.70;100.00
75438;BME280;64015;49.392;15.582;2024-01-06T02:57:07;94576.66;;;1.68;100.00
75438;BME280;64015;49.392;15.582;2024-01-06T02:59:35;94583.16;;;1.65;100.00
75438;BME280;64015;49.392;15.582;2024-01-06T03:02:01;94598.81;;;1.70;100.00
75438;BME280;64015;49.392;15.582;2024-01-06T03:04:27;94588.59;;;1.64;100.00
75438;BME280;64015;49.392;15.582;2024-01-06T03:06:53;94599.03;;;1.69;100.00
75438;BME280;64015;49.392;15.582;2024-01-06T03:09:19;94601.03;;;1.62;100.00
75438;BME280;64015;49.392;15.582;2024-01-06T03:11:44;94593.78;;;1.64;100.00
75438;BME280;64015;49.392;15.582;2024-01-06T03:14:10;94602.50;;;1.58;100.00
75438;BME280;64015;49.392;15.582;2024-01-06T03:16:36;94591.09;;;1.59;100.00
75438;BME280;64015;49.392;15.582;2024-01-06T03:19:02;94594.84;;;1.68;100.00
75438;BME280;64015;49.392;15.582;2024-01-06T03:21:27;94600.13;;;1.73;100.00
75438;BME280;64015;49.392;15.582;2024-01-06T03:23:53;94599.03;;;1.69;100.00
75438;BME280;64015;49.392;15.582;2024-01-06T03:26:21;94607.84;;;1.68;100.00
75438;BME280;64015;49.392;15.582;2024-01-06T03:28:51;94598.81;;;1.70;100.00
75438;BME280;64015;49.392;15.582;2024-01-06T03:33:57;94576.13;;;1.66;100.00
75438;BME280;64015;49.392;15.582;2024-01-06T03:36:22;94575.88;;;1.67;100.00
75438;BME280;64015;49.392;15.582;2024-01-06T03:39:04;94580.38;;;1.72;100.00
75438;BME280;64015;49.392;15.582;2024-01-06T03:45:25;94559.34;;;1.73;100.00
75438;BME280;64015;49.392;15.582;2024-01-06T03:51:02;94580.38;;;1.94;100.00
75438;BME280;64015;49.392;15.582;2024-01-06T03:53:28;94595.47;;;1.97;100.00
75438;BME280;64015;49.392;15.582;2024-01-06T03:55:54;94575.47;;;1.97;100.00
75438;BME280;64015;49.392;15.582;2024-01-06T03:58:20;94577.03;;;1.98;100.00
75438;BME280;64015;49.392;15.582;2024-01-06T04:00:46;94579.88;;;1.97;100.00
75438;BME280;64015;49.392;15.582;2024-01-06T04:03:12;94554.41;;;1.77;100.00
75438;BME280;64015;49.392;15.582;2024-01-06T04:05:37;94565.19;;;1.85;100.00
75438;BME280;64015;49.392;15.582;2024-01-06T04:08:05;94576.50;;;1.96;100.00
75438;BME280;64015;49.392;15.582;2024-01-06T04:10:34;94567.06;;;1.90;100.00
75438;BME280;64015;49.392;15.582;2024-01-06T04:12:59;94573.09;;;1.96;100.00
75438;BME280;64015;49.392;15.582;2024-01-06T04:15:25;94550.88;;;1.83;100.00
75438;BME280;64015;49.392;15.582;2024-01-06T04:18:05;94567.03;;;1.85;100.00
75438;BME280;64015;49.392;15.582;2024-01-06T04:20:31;94562.66;;;1.91;100.00
75438;BME280;64015;49.392;15.582;2024-01-06T04:22:58;94554.75;;;1.80;100.00
75438;BME280;64015;49.392;15.582;2024-01-06T04:25:24;94548.69;;;1.75;100.00
75438;BME280;64015;49.392;15.582;2024-01-06T04:27:50;94557.56;;;1.79;100.00
75438;BME280;64015;49.392;15.582;2024-01-06T04:30:16;94545.78;;;1.71;100.00
75438;BME280;64015;49.392;15.582;2024-01-06T04:32:49;94564.03;;;1.76;100.00
75438;BME280;64015;49.392;15.582;2024-01-06T04:35:19;94548.03;;;1.63;100.00
75438;BME280;64015;49.392;15.582;2024-01-06T04:37:52;94552.75;;;1.66;100.00
75438;BME280;64015;49.392;15.582;2024-01-06T04:40:17;94547.94;;;1.58;100.00
75438;BME280;64015;49.392;15.582;2024-01-06T04:42:43;94552.63;;;1.56;100.00
75438;BME280;64015;49.392;15.582;2024-01-06T04:45:09;94560.19;;;1.57;100.00
75438;BME280;64015;49.392;15.582;2024-01-06T04:47:35;94565.66;;;1.61;100.00
75438;BME280;64015;49.392;15.582;2024-01-06T04:50:00;94548.69;;;1.53;100.00
75438;BME280;64015;49.392;15.582;2024-01-06T04:52:26;94549.94;;;1.50;100.00
75438;BME280;64015;49.392;15.582;2024-01-06T04:54:52;94543.59;;;1.41;100.00
75438;BME280;64015;49.392;15.582;2024-01-06T04:57:18;94545.47;;;1.46;100.00
75438;BME280;64015;49.392;15.582;2024-01-06T04:59:43;94560.41;;;1.56;100.00
75438;BME280;64015;49.392;15.582;2024-01-06T05:02:09;94555.13;;;1.50;100.00
75438;BME280;64015;49.392;15.582;2024-01-06T05:04:35;94560.03;;;1.47;100.00
75438;BME280;64015;49.392;15.582;2024-01-06T05:07:10;94544.13;;;1.43;100.00
75438;BME280;64015;49.392;15.582;2024-01-06T05:09:36;94547.28;;;1.45;100.00
75438;BME280;64015;49.392;15.582;2024-01-06T05:12:02;94543.03;;;1.39;100.00
75438;BME280;64015;49.392;15.582;2024-01-06T05:14:27;94542.56;;;1.42;100.00
75438;BME280;64015;49.392;15.582;2024-01-06T05:16:53;94547.28;;;1.45;100.00
75438;BME280;64015;49.392;15.582;2024-01-06T05:19:19;94572.94;;;1.42;100.00
75438;BME280;64015;49.392;15.582;2024-01-06T05:21:49;94561.06;;;1.46;100.00
75438;BME280;64015;49.392;15.582;2024-01-06T05:24:15;94545.94;;;1.43;100.00
75438;BME280;64015;49.392;15.582;2024-01-06T05:26:41;94551.31;;;1.36;100.00
75438;BME280;64015;49.392;15.582;2024-01-06T05:29:07;94540.38;;;1.34;100.00
75438;BME280;64015;49.392;15.582;2024-01-06T05:31:33;94542.00;;;1.40;100.00
75438;BME280;64015;49.392;15.582;2024-01-06T05:33:58;94557.19;;;1.48;100.00
75438;BME280;64015;49.392;15.582;2024-01-06T05:36:24;94563.56;;;1.41;100.00
75438;BME280;64015;49.392;15.582;2024-01-06T05:38:50;94568.31;;;1.44;100.00
75438;BME280;64015;49.392;15.582;2024-01-06T05:41:15;94571.84;;;1.55;100.00
75438;BME280;64015;49.392;15.582;2024-01-06T05:43:41;94566.91;;;1.58;100.00
75438;BME280;64015;49.392;15.582;2024-01-06T05:46:07;94569.53;;;1.58;100.00
75438;BME280;64015;49.392;15.582;2024-01-06T05:48:33;94572.44;;;1.62;100.00
75438;BME280;64015;49.392;15.582;2024-01-06T05:50:58;94563.00;;;1.56;100.00
75438;BME280;64015;49.392;15.582;2024-01-06T05:53:24;94563.00;;;1.56;100.00
75438;BME280;64015;49.392;15.582;2024-01-06T05:55:52;94569.78;;;1.57;100.00
75438;BME280;64015;49.392;15.582;2024-01-06T05:58:17;94582.84;;;1.62;100.00
75438;BME280;64015;49.392;15.582;2024-01-06T06:00:43;94578.75;;;1.66;100.00
75438;BME280;64015;49.392;15.582;2024-01-06T06:03:11;94593.00;;;1.63;100.00
75438;BME280;64015;49.392;15.582;2024-01-06T06:05:36;94589.66;;;1.68;100.00
75438;BME280;64015;49.392;15.582;2024-01-06T06:08:02;94587.63;;;1.70;100.00
75438;BME280;64015;49.392;15.582;2024-01-06T06:10:28;94591.56;;;1.72;100.00
75438;BME280;64015;49.392;15.582;2024-01-06T06:13:06;94579.34;;;1.73;100.00
75438;BME280;64015;49.392;15.582;2024-01-06T06:15:35;94589.56;;;1.79;100.00
75438;BME280;64015;49.392;15.582;2024-01-06T06:18:00;94592.91;;;1.75;100.00
75438;BME280;64015;49.392;15.582;2024-01-06T06:20:26;94604.22;;;1.69;100.00
75438;BME280;64015;49.392;15.582;2024-01-06T06:22:52;94601.28;;;1.82;100.00
75438;BME280;64015;49.392;15.582;2024-01-06T06:25:17;94605.75;;;1.86;100.00
75438;BME280;64015;49.392;15.582;2024-01-06T06:27:43;94604.50;;;1.89;100.00
75438;BME280;64015;49.392;15.582;2024-01-06T06:30:09;94611.88;;;1.97;100.00
75438;BME280;64015;49.392;15.582;2024-01-06T06:32:35;94610.31;;;1.96;100.00
75438;BME280;64015;49.392;15.582;2024-01-06T06:35:00;94606.44;;;1.99;100.00
75438;BME280;64015;49.392;15.582;2024-01-06T06:37:27;94615.03;;;1.99;100.00
75438;BME280;64015;49.392;15.582;2024-01-06T06:39:52;94619.53;;;2.04;100.00
75438;BME280;64015;49.392;15.582;2024-01-06T06:42:18;94627.06;;;2.05;100.00
75438;BME280;64015;49.392;15.582;2024-01-06T06:44:44;94620.84;;;2.06;100.00
75438;BME280;64015;49.392;15.582;2024-01-06T06:47:09;94619.25;;;2.05;100.00
75438;BME280;64015;49.392;15.582;2024-01-06T06:49:35;94631.56;;;2.10;100.00
75438;BME280;64015;49.392;15.582;2024-01-06T06:52:01;94637.31;;;2.12;100.00
75438;BME280;64015;49.392;15.582;2024-01-06T06:54:28;94629.38;;;2.02;100.00
75438;BME280;64015;49.392;15.582;2024-01-06T06:56:54;94633.22;;;1.99;100.00
75438;BME280;64015;49.392;15.582;2024-01-06T06:59:19;94635.50;;;1.96;100.00
75438;BME280;64015;49.392;15.582;2024-01-06T07:01:45;94625.13;;;1.96;100.00
75438;BME280;64015;49.392;15.582;2024-01-06T07:04:11;94639.00;;;2.01;100.00
75438;BME280;64015;49.392;15.582;2024-01-06T07:06:37;94624.16;;;2.02;100.00
75438;BME280;64015;49.392;15.582;2024-01-06T07:09:03;94634.84;;;2.05;100.00
75438;BME280;64015;49.392;15.582;2024-01-06T07:11:30;94635.13;;;2.04;100.00
75438;BME280;64015;49.392;15.582;2024-01-06T07:13:55;94643.41;;;2.01;100.00
75438;BME280;64015;49.392;15.582;2024-01-06T07:16:21;94647.81;;;2.00;100.00
75438;BME280;64015;49.392;15.582;2024-01-06T07:18:47;94648.88;;;2.04;100.00
75438;BME280;64015;49.392;15.582;2024-01-06T07:21:13;94663.56;;;2.10;100.00
75438;BME280;64015;49.392;15.582;2024-01-06T07:23:39;94665.41;;;2.15;100.00
75438;BME280;64015;49.392;15.582;2024-01-06T07:26:05;94658.94;;;2.17;100.00
75438;BME280;64015;49.392;15.582;2024-01-06T07:28:31;94669.16;;;2.24;100.00
75438;BME280;64015;49.392;15.582;2024-01-06T07:30:56;94661.13;;;2.25;100.00
75438;BME280;64015;49.392;15.582;2024-01-06T07:33:22;94669.13;;;2.19;100.00
75438;BME280;64015;49.392;15.582;2024-01-06T07:35:48;94664.19;;;2.22;100.00
75438;BME280;64015;49.392;15.582;2024-01-06T07:38:13;94650.22;;;2.07;100.00
75438;BME280;64015;49.392;15.582;2024-01-06T07:40:39;94671.72;;;2.19;100.00
75438;BME280;64015;49.392;15.582;2024-01-06T07:43:05;94678.00;;;2.23;100.00
75438;BME280;64015;49.392;15.582;2024-01-06T07:45:32;94685.34;;;2.26;100.00
75438;BME280;64015;49.392;15.582;2024-01-06T07:47:58;94692.25;;;2.37;100.00
75438;BME280;64015;49.392;15.582;2024-01-06T07:50:24;94686.66;;;2.29;100.00
75438;BME280;64015;49.392;15.582;2024-01-06T07:52:50;94693.75;;;2.33;100.00
75438;BME280;64015;49.392;15.582;2024-01-06T07:55:17;94696.41;;;2.38;100.00
75438;BME280;64015;49.392;15.582;2024-01-06T07:57:42;94695.41;;;2.39;100.00
75438;BME280;64015;49.392;15.582;2024-01-06T08:00:10;94698.53;;;2.41;100.00
75438;BME280;64015;49.392;15.582;2024-01-06T08:02:36;94707.13;;;2.42;100.00
75438;BME280;64015;49.392;15.582;2024-01-06T08:05:02;94711.59;;;2.46;100.00
75438;BME280;64015;49.392;15.582;2024-01-06T08:07:28;94712.81;;;2.39;100.00
75438;BME280;64015;49.392;15.582;2024-01-06T08:09:54;94716.25;;;2.44;100.00
75438;BME280;64015;49.392;15.582;2024-01-06T08:12:20;94720.69;;;2.44;100.00
75438;BME280;64015;49.392;15.582;2024-01-06T08:14:45;94719.53;;;2.56;100.00
75438;BME280;64015;49.392;15.582;2024-01-06T08:17:11;94719.34;;;2.63;100.00
75438;BME280;64015;49.392;15.582;2024-01-06T08:19:37;94715.16;;;2.62;100.00
75438;BME280;64015;49.392;15.582;2024-01-06T08:22:02;94732.19;;;2.70;100.00
75438;BME280;64015;49.392;15.582;2024-01-06T08:24:28;94729.88;;;2.73;100.00
75438;BME280;64015;49.392;15.582;2024-01-06T08:26:54;94730.44;;;2.75;100.00
75438;BME280;64015;49.392;15.582;2024-01-06T08:29:20;94738.28;;;2.80;100.00
75438;BME280;64015;49.392;15.582;2024-01-06T08:31:45;94735.69;;;2.80;100.00
75438;BME280;64015;49.392;15.582;2024-01-06T08:34:11;94743.06;;;2.88;100.00
75438;BME280;64015;49.392;15.582;2024-01-06T08:36:37;94746.03;;;2.97;100.00
75438;BME280;64015;49.392;15.582;2024-01-06T08:39:03;94732.75;;;2.98;100.00
75438;BME280;64015;49.392;15.582;2024-01-06T08:41:28;94741.22;;;3.11;100.00
75438;BME280;64015;49.392;15.582;2024-01-06T08:43:54;94746.47;;;3.16;100.00
75438;BME280;64015;49.392;15.582;2024-01-06T08:46:20;94756.75;;;3.27;100.00
75438;BME280;64015;49.392;15.582;2024-01-06T08:48:46;94753.63;;;3.25;100.00
75438;BME280;64015;49.392;15.582;2024-01-06T08:51:11;94740.91;;;3.34;100.00
75438;BME280;64015;49.392;15.582;2024-01-06T08:53:37;94750.47;;;3.50;100.00
75438;BME280;64015;49.392;15.582;2024-01-06T08:56:03;94742.56;;;3.40;100.00
75438;BME280;64015;49.392;15.582;2024-01-06T08:58:29;94755.47;;;3.57;100.00
75438;BME280;64015;49.392;15.582;2024-01-06T09:00:54;94757.84;;;3.58;100.00
75438;BME280;64015;49.392;15.582;2024-01-06T09:03:20;94737.00;;;3.58;100.00
75438;BME280;64015;49.392;15.582;2024-01-06T09:05:52;94753.19;;;3.65;100.00
75438;BME280;64015;49.392;15.582;2024-01-06T09:08:18;94741.25;;;3.69;100.00
75438;BME280;64015;49.392;15.582;2024-01-06T09:10:44;94753.84;;;3.83;100.00
75438;BME280;64015;49.392;15.582;2024-01-06T09:13:09;94741.81;;;3.77;100.00
75438;BME280;64015;49.392;15.582;2024-01-06T09:15:35;94753.13;;;3.87;100.00
75438;BME280;64015;49.392;15.582;2024-01-06T09:18:01;94744.50;;;3.87;100.00
75438;BME280;64015;49.392;15.582;2024-01-06T09:20:46;94753.44;;;3.96;100.00
75438;BME280;64015;49.392;15.582;2024-01-06T09:23:16;94751.56;;;3.91;100.00
75438;BME280;64015;49.392;15.582;2024-01-06T09:25:41;94752.94;;;3.99;100.00
75438;BME280;64015;49.392;15.582;2024-01-06T09:28:07;94744.91;;;4.05;100.00
75438;BME280;64015;49.392;15.582;2024-01-06T09:30:33;94742.53;;;4.04;100.00
75438;BME280;64015;49.392;15.582;2024-01-06T09:32:59;94749.91;;;4.17;100.00
75438;BME280;64015;49.392;15.582;2024-01-06T09:35:25;94742.63;;;4.19;100.00
75438;BME280;64015;49.392;15.582;2024-01-06T09:37:51;94753.31;;;4.18;100.00
75438;BME280;64015;49.392;15.582;2024-01-06T09:40:22;94756.16;;;4.11;100.00
75438;BME280;64015;49.392;15.582;2024-01-06T09:42:49;94746.78;;;4.15;100.00
75438;BME280;64015;49.392;15.582;2024-01-06T09:45:15;94741.44;;;3.95;100.00
75438;BME280;64015;49.392;15.582;2024-01-06T09:47:41;94751.69;;;4.06;100.00
75438;BME280;64015;49.392;15.582;2024-01-06T09:50:09;94757.16;;;4.05;100.00
75438;BME280;64015;49.392;15.582;2024-01-06T09:52:40;94755.94;;;4.18;100.00
75438;BME280;64015;49.392;15.582;2024-01-06T09:55:11;94752.75;;;4.10;100.00
75438;BME280;64015;49.392;15.582;2024-01-06T09:57:37;94754.38;;;4.17;100.00
75438;BME280;64015;49.392;15.582;2024-01-06T10:00:04;94754.66;;;4.20;100.00
75438;BME280;64015;49.392;15.582;2024-01-06T10:02:30;94742.63;;;4.19;100.00
75438;BME280;64015;49.392;15.582;2024-01-06T10:04:59;94750.25;;;4.26;100.00
75438;BME280;64015;49.392;15.582;2024-01-06T10:07:28;94742.69;;;4.24;100.00
75438;BME280;64015;49.392;15.582;2024-01-06T10:09:54;94751.56;;;4.28;100.00
75438;BME280;64015;49.392;15.582;2024-01-06T10:12:24;94757.41;;;4.45;100.00
75438;BME280;64015;49.392;15.582;2024-01-06T10:14:51;94745.97;;;4.57;100.00
75438;BME280;64015;49.392;15.582;2024-01-06T10:17:17;94754.97;;;4.81;100.00
75438;BME280;64015;49.392;15.582;2024-01-06T10:19:47;94742.47;;;4.93;100.00
75438;BME280;64015;49.392;15.582;2024-01-06T10:22:16;94744.06;;;5.04;100.00
75438;BME280;64015;49.392;15.582;2024-01-06T10:24:42;94744.41;;;5.28;100.00
75438;BME280;64015;49.392;15.582;2024-01-06T10:27:08;94739.97;;;5.39;100.00
75438;BME280;64015;49.392;15.582;2024-01-06T10:29:34;94740.75;;;5.39;100.00
75438;BME280;64015;49.392;15.582;2024-01-06T10:32:00;94751.25;;;5.54;100.00
75438;BME280;64015;49.392;15.582;2024-01-06T10:34:26;94728.50;;;5.65;100.00
75438;BME280;64015;49.392;15.582;2024-01-06T10:36:53;94748.09;;;5.57;100.00
75438;BME280;64015;49.392;15.582;2024-01-06T10:39:19;94744.19;;;5.55;100.00
75438;BME280;64015;49.392;15.582;2024-01-06T10:41:46;94734.22;;;5.52;100.00
75438;BME280;64015;49.392;15.582;2024-01-06T10:44:14;94729.78;;;5.57;100.00
75438;BME280;64015;49.392;15.582;2024-01-06T10:46:40;94737.63;;;5.57;100.00
75438;BME280;64015;49.392;15.582;2024-01-06T10:49:10;94733.72;;;5.55;100.00
75438;BME280;64015;49.392;15.582;2024-01-06T10:51:38;94739.97;;;5.49;100.00
75438;BME280;64015;49.392;15.582;2024-01-06T10:54:04;94746.75;;;5.40;100.00
75438;BME280;64015;49.392;15.582;2024-01-06T10:56:38;94751.94;;;5.09;100.00
75438;BME280;64015;49.392;15.582;2024-01-06T10:59:04;94734.38;;;4.95;100.00
75438;BME280;64015;49.392;15.582;2024-01-06T11:01:35;94725.22;;;4.87;100.00
75438;BME280;64015;49.392;15.582;2024-01-06T11:04:02;94739.81;;;4.83;100.00
75438;BME280;64015;49.392;15.582;2024-01-06T11:06:31;94726.47;;;4.74;100.00
75438;BME280;64015;49.392;15.582;2024-01-06T11:09:22;94732.50;;;4.80;100.00
75438;BME280;64015;49.392;15.582;2024-01-06T11:11:50;94719.91;;;4.62;100.00
75438;BME280;64015;49.392;15.582;2024-01-06T11:14:24;94727.72;;;4.67;100.00
75438;BME280;64015;49.392;15.582;2024-01-06T11:16:52;94728.81;;;4.76;100.00
75438;BME280;64015;49.392;15.582;2024-01-06T11:24:49;94711.06;;;4.78;100.00
75438;BME280;64015;49.392;15.582;2024-01-06T11:27:20;94718.31;;;4.66;100.00
75438;BME280;64015;49.392;15.582;2024-01-06T11:29:50;94715.78;;;4.81;100.00
75438;BME280;64015;49.392;15.582;2024-01-06T11:32:18;94708.44;;;4.78;100.00
75438;BME280;64015;49.392;15.582;2024-01-06T11:34:51;94701.66;;;4.82;100.00
75438;BME280;64015;49.392;15.582;2024-01-06T11:37:23;94711.06;;;4.83;100.00
75438;BME280;64015;49.392;15.582;2024-01-06T11:39:50;94715.75;;;4.76;100.00
75438;BME280;64015;49.392;15.582;2024-01-06T11:42:16;94711.06;;;4.83;100.00
75438;BME280;64015;49.392;15.582;2024-01-06T11:44:50;94694.84;;;4.76;100.00
75438;BME280;64015;49.392;15.582;2024-01-06T11:47:17;94703.50;;;4.81;100.00
75438;BME280;64015;49.392;15.582;2024-01-06T11:49:46;94704.00;;;4.78;100.00
75438;BME280;64015;49.392;15.582;2024-01-06T11:52:13;94702.69;;;4.71;100.00
75438;BME280;64015;49.392;15.582;2024-01-06T11:54:40;94697.44;;;4.61;100.00
75438;BME280;64015;49.392;15.582;2024-01-06T11:57:07;94692.44;;;4.54;100.00
75438;BME280;64015;49.392;15.582;2024-01-06T11:59:33;94686.88;;;4.40;100.00
75438;BME280;64015;49.392;15.582;2024-01-06T12:01:59;94685.56;;;4.33;100.00
75438;BME280;64015;49.392;15.582;2024-01-06T12:04:24;94697.84;;;4.37;100.00
75438;BME280;64015;49.392;15.582;2024-01-06T12:06:52;94696.00;;;4.33;100.00
75438;BME280;64015;49.392;15.582;2024-01-06T12:09:19;94692.56;;;4.27;100.00
75438;BME280;64015;49.392;15.582;2024-01-06T12:11:45;94691.03;;;4.31;100.00
75438;BME280;64015;49.392;15.582;2024-01-06T12:14:12;94688.94;;;4.33;100.00
75438;BME280;64015;49.392;15.582;2024-01-06T12:16:38;94694.13;;;4.28;100.00
75438;BME280;64015;49.392;15.582;2024-01-06T12:19:04;94699.88;;;4.25;100.00
75438;BME280;64015;49.392;15.582;2024-01-06T12:21:30;94701.66;;;4.15;100.00
75438;BME280;64015;49.392;15.582;2024-01-06T12:24:16;94695.66;;;4.19;100.00
75438;BME280;64015;49.392;15.582;2024-01-06T12:26:44;94702.13;;;4.11;100.00
75438;BME280;64015;49.392;15.582;2024-01-06T12:29:11;94702.94;;;4.17;100.00
75438;BME280;64015;49.392;15.582;2024-01-06T12:31:38;94693.53;;;4.11;100.00
75438;BME280;64015;49.392;15.582;2024-01-06T12:34:05;94692.47;;;4.07;100.00
75438;BME280;64015;49.392;15.582;2024-01-06T12:36:31;94703.97;;;4.11;100.00
75438;BME280;64015;49.392;15.582;2024-01-06T12:38:59;94697.97;;;4.10;100.00
75438;BME280;64015;49.392;15.582;2024-01-06T12:41:27;94684.91;;;4.05;100.00
75438;BME280;64015;49.392;15.582;2024-01-06T12:43:53;94694.59;;;4.15;100.00
75438;BME280;64015;49.392;15.582;2024-01-06T12:46:19;94691.69;;;4.06;100.00
75438;BME280;64015;49.392;15.582;2024-01-06T12:48:45;94682.53;;;4.09;100.00
75438;BME280;64015;49.392;15.582;2024-01-06T12:51:11;94681.03;;;4.18;100.00
75438;BME280;64015;49.392;15.582;2024-01-06T12:53:37;94695.72;;;4.29;100.00
75438;BME280;64015;49.392;15.582;2024-01-06T12:56:03;94684.22;;;4.30;100.00
75438;BME280;64015;49.392;15.582;2024-01-06T12:58:29;94703.03;;;4.32;100.00
75438;BME280;64015;49.392;15.582;2024-01-06T13:00:55;94696.53;;;4.35;100.00
75438;BME280;64015;49.392;15.582;2024-01-06T13:03:20;94695.75;;;4.34;100.00
75438;BME280;64015;49.392;15.582;2024-01-06T13:05:46;94705.16;;;4.35;100.00
75438;BME280;64015;49.392;15.582;2024-01-06T13:08:13;94711.13;;;4.36;100.00
75438;BME280;64015;49.392;15.582;2024-01-06T13:10:39;94710.38;;;4.35;100.00
75438;BME280;64015;49.392;15.582;2024-01-06T13:13:04;94707.25;;;4.38;100.00
75438;BME280;64015;49.392;15.582;2024-01-06T13:15:34;94709.31;;;4.36;100.00
75438;BME280;64015;49.392;15.582;2024-01-06T13:18:00;94708.81;;;4.34;100.00
75438;BME280;64015;49.392;15.582;2024-01-06T13:20:26;94704.56;;;4.28;100.00
75438;BME280;64015;49.392;15.582;2024-01-06T13:22:51;94706.69;;;4.36;100.00
75438;BME280;64015;49.392;15.582;2024-01-06T13:25:18;94707.75;;;4.35;100.00
75438;BME280;64015;49.392;15.582;2024-01-06T13:27:45;94714.03;;;4.34;100.00
75438;BME280;64015;49.392;15.582;2024-01-06T13:30:17;94715.84;;;4.34;100.00
75438;BME280;64015;49.392;15.582;2024-01-06T13:32:43;94711.66;;;4.33;100.00
75438;BME280;64015;49.392;15.582;2024-01-06T13:35:09;94696.19;;;4.16;100.00
75438;BME280;64015;49.392;15.582;2024-01-06T13:37:37;94724.19;;;4.31;100.00
75438;BME280;64015;49.392;15.582;2024-01-06T13:40:04;94701.13;;;4.18;100.00
75438;BME280;64015;49.392;15.582;2024-01-06T13:46:00;94725.50;;;4.38;100.00
75438;BME280;64015;49.392;15.582;2024-01-06T13:48:54;94724.41;;;4.24;100.00